Weather at Trenton Mercer Airport

Public forecast

Using degrees Fahrenheit for public forecast. Weather courtesy of forecast.io.

Current aviation weather report (METAR) for Trenton Mercer Airport

Retrieved 2021/04/17 14:53 UTC (19 minutes ago):

KTTN 171453Z 34008KT 10SM SCT034 SCT040 OVC050 09/02 A2980 RMK AO2 SLP086 T00940022 52003

Aviation forecast (TAF) for Trenton Mercer Airport

Retrieved 2021/04/17 12:22 UTC (3 hours ago):

TAF KTTN 171120Z 1712/1812 30010KT P6SM BKN035 TEMPO 1712/1714 OVC030 FM171400 33010KT P6SM BKN040 FM180100 32004KT P6SM BKN070 FM180600 32004KT P6SM SCT080